Portada
METAR-TAF:

METAR-TAF

Aeroports :

Municipal_Airport

Plymouth, Nova Hampshire, Estats Units d'Amèrica

latitud: 43-46-45N, longitud: 071-45-13W, altitud: 154 m

Observació

L'informe es va fer fa 34 minuts, a les 22:55 UTC
Vent 6 kt del Est
Temperatura 18°C
Humitat 32%
Pressió 1024 hPa
Visibilitat: 16.1 km
Cel clar

METAR: K1P1 242255Z AUTO 10006KT 10SM CLR 18/01 A3024 RMK AO2 T01840014

Hora: 19:29 (23:29 UTC)


TAF: manca

Observacions i pronòstics meteorològics de més de 4000 aeroports (METAR i TAF).

Les estacions disponibles són els punts grocs i vermells al mapa.

Posi el ratolí al punt desitjat per veure el nom de l'estació.

Feu clic per veure les observacions i els pronòstics meteorològics.

Per canviar el mapa: feu clic els botons verds amb una creu de color negre per apropar; al botó verd amb un guió per allunyar la imatge; o en les fletxes verdes per a mapes adjacents.


METAR-TAF: